Hedvig Bulker — OWYM2 — position and weather

sailwx.info

Track history (hours):
 
Tides and Currents Weather Stations Pressure Air Temp Water Temp Dewpoint Dewpoint Depression Visibility Wind Speed Wind Dir Waves Ship Positions

Hedvig Bulker

Last reported at 2017-Dec-02 14:21 UTC. Time now 2017-Dec-12 19:53 UTC.
Position N 60°24' E 019°02'.
Warning: this ship's position is 10 days out of date.

Length 175 m; draft 7.1 m.

Type: Ship. MMSI: 219594000.

Date/timePositionNaut miles runAvg speedWind from/ knotsBaromVisibWave heightAir tempDewpointWater temp
2017-Dec-02 14:21N 60°24' E 019°02'512.7
2017-Dec-02 13:57N 60°19' E 019°01'612.2
2017-Dec-02 13:30N 60°13' E 019°04'611.2
2017-Dec-02 13:00N 60°09' E 019°09'611.2
2017-Dec-02 12:30N 60°04' E 019°17'611.0
2017-Dec-02 12:00N 60°00' E 019°23'510.9
2017-Dec-02 11:30N 59°56' E 019°30'510.7
2017-Dec-02 11:00N 59°52' E 019°37'510.9
2017-Dec-02 10:30N 59°48' E 019°44'611.4
2017-Dec-02 10:00N 59°43' E 019°51'611.1
2017-Dec-02 09:29N 59°38' E 019°58'17411.2
2017-Dec-01 17:51N 57°16' E 016°44'410.6
2017-Dec-01 17:30N 57°16' E 016°38'4 8.5
2017-Dec-01 17:00N 57°16' E 016°30'1 1.3
2017-Dec-01 16:29N 57°16' E 016°29'0 0.0
2017-Dec-01 15:59N 57°16' E 016°29'0 0.0
2017-Dec-01 15:29N 57°16' E 016°29'0 0.0
2017-Dec-01 14:59N 57°16' E 016°29'0 0.0
2017-Dec-01 14:29N 57°16' E 016°29'0 0.0
2017-Dec-01 13:59N 57°16' E 016°29'0 0.0
2017-Dec-01 13:29N 57°16' E 016°29'0 0.0
2017-Dec-01 12:59N 57°16' E 016°29'0 0.0
2017-Dec-01 12:29N 57°16' E 016°29'0 0.0
2017-Dec-01 11:59N 57°16' E 016°29'0 0.0
2017-Dec-01 11:29N 57°16' E 016°29'0 0.0
2017-Dec-01 10:59N 57°16' E 016°29'0 0.0
2017-Dec-01 10:29N 57°16' E 016°29'0 0.0
2017-Dec-01 09:59N 57°16' E 016°29'0 0.0
2017-Dec-01 09:29N 57°16' E 016°29'0 0.0
2017-Dec-01 08:59N 57°16' E 016°29'0 0.0
2017-Dec-01 08:29N 57°16' E 016°29'0 0.0
2017-Dec-01 07:59N 57°16' E 016°29'0 0.0
2017-Dec-01 07:29N 57°16' E 016°29'0 0.0
2017-Dec-01 06:59N 57°16' E 016°29'0 0.0
2017-Dec-01 06:29N 57°16' E 016°29'0 0.0
2017-Dec-01 05:59N 57°16' E 016°29'0 0.0
2017-Dec-01 05:29N 57°16' E 016°29'0 0.0
2017-Dec-01 04:59N 57°16' E 016°29'0 0.0
2017-Dec-01 04:29N 57°16' E 016°29'0 0.0
2017-Dec-01 03:59N 57°16' E 016°29'0 0.0
2017-Dec-01 03:29N 57°16' E 016°29'0 0.0
2017-Dec-01 02:59N 57°16' E 016°29'0 0.0
2017-Dec-01 02:29N 57°16' E 016°29'0 0.0
2017-Dec-01 01:59N 57°16' E 016°29'0 0.0
2017-Dec-01 01:29N 57°16' E 016°29'0 0.0
2017-Dec-01 00:59N 57°16' E 016°29'0 0.0
2017-Dec-01 00:29N 57°16' E 016°29'0 0.0
2017-Nov-30 23:59N 57°16' E 016°29'0 0.0
2017-Nov-30 23:29N 57°16' E 016°29'0 0.0
2017-Nov-30 22:59N 57°16' E 016°29'0 0.0
2017-Nov-30 22:29N 57°16' E 016°29'0 0.0
2017-Nov-30 21:59N 57°16' E 016°29'0 0.0
2017-Nov-30 21:29N 57°16' E 016°29'0 0.0
2017-Nov-30 20:59N 57°16' E 016°29'0 0.0
2017-Nov-30 20:29N 57°16' E 016°29'0 0.0
2017-Nov-30 19:59N 57°16' E 016°29'0 0.0
2017-Nov-30 19:29N 57°16' E 016°29'0 0.0
2017-Nov-30 18:59N 57°16' E 016°29'0 0.0
2017-Nov-30 18:29N 57°16' E 016°29'0 0.0
2017-Nov-30 17:59N 57°16' E 016°29'0 0.0
2017-Nov-30 17:29N 57°16' E 016°29'0 0.0
2017-Nov-30 16:59N 57°16' E 016°29'0 0.0
2017-Nov-30 16:29N 57°16' E 016°29'0 0.0
2017-Nov-30 15:59N 57°16' E 016°29'0 0.0
2017-Nov-30 15:29N 57°16' E 016°29'0 0.0
2017-Nov-30 14:59N 57°16' E 016°29'0 0.0
2017-Nov-30 14:29N 57°16' E 016°29'0 0.0
2017-Nov-30 13:59N 57°16' E 016°29'0 0.0
2017-Nov-30 13:29N 57°16' E 016°29'0 0.0
2017-Nov-30 12:59N 57°16' E 016°29'0 0.0
2017-Nov-30 12:26N 57°16' E 016°29'0 0.0
2017-Nov-30 11:59N 57°16' E 016°29'0 0.0
2017-Nov-30 11:29N 57°16' E 016°29'0 0.0
2017-Nov-30 10:59N 57°16' E 016°29'0 0.1
2017-Nov-30 10:31N 57°16' E 016°29'1 2.6
2017-Nov-30 10:01N 57°16' E 016°31'3 5.8
2017-Nov-30 09:31N 57°16' E 016°36'0 0.8
2017-Nov-30 09:00N 57°15' E 016°37'0 0.1
2017-Nov-30 08:27N 57°15' E 016°37'0 0.2
2017-Nov-30 08:00N 57°15' E 016°37'0 0.2
2017-Nov-30 07:30N 57°15' E 016°37'0 0.1
2017-Nov-30 07:00N 57°15' E 016°37'0 0.1
2017-Nov-30 06:30N 57°15' E 016°37'0 0.1
2017-Nov-30 06:00N 57°15' E 016°37'0 0.0
2017-Nov-30 05:30N 57°15' E 016°37'0 0.0
2017-Nov-30 05:00N 57°15' E 016°37'0 0.1
2017-Nov-30 04:30N 57°15' E 016°37'0 0.0
2017-Nov-30 04:00N 57°15' E 016°37'0 0.0
2017-Nov-30 03:30N 57°15' E 016°37'0 0.0
2017-Nov-30 03:00N 57°15' E 016°37'0 0.1
2017-Nov-30 02:30N 57°15' E 016°37'0 0.0
2017-Nov-30 02:00N 57°15' E 016°37'0 0.1
2017-Nov-30 01:30N 57°15' E 016°37'0 0.1
2017-Nov-30 01:00N 57°15' E 016°37'0 0.4
2017-Nov-30 00:30N 57°15' E 016°37'2 3.7
2017-Nov-30 00:00N 57°16' E 016°40'69 7.0
2017-Nov-29 14:10N 56°07' E 016°51'213.2
2017-Nov-29 14:00N 56°05' E 016°49'613.0
2017-Nov-29 13:30N 56°01' E 016°40'613.0
2017-Nov-29 13:00N 55°58' E 016°30'612.8
2017-Nov-29 12:30N 55°54' E 016°21'612.9
2017-Nov-29 12:00N 55°51' E 016°11'612.8
2017-Nov-29 11:30N 55°47' E 016°01'612.6
2017-Nov-29 11:00N 55°44' E 015°52'612.6
2017-Nov-29 10:30N 55°41' E 015°42'612.5
2017-Nov-29 10:00N 55°38' E 015°32'612.6
2017-Nov-29 09:30N 55°36' E 015°22'612.6
2017-Nov-29 09:00N 55°34' E 015°11'712.8
2017-Nov-29 08:25N 55°31' E 014°59'513.0
2017-Nov-29 08:00N 55°30' E 014°50'612.6
2017-Nov-29 07:30N 55°26' E 014°41'713.1
2017-Nov-29 07:00N 55°20' E 014°34'612.9
2017-Nov-29 06:30N 55°15' E 014°27'612.2
2017-Nov-29 06:00N 55°11' E 014°19'812.8
2017-Nov-29 05:22N 55°10' E 014°05'2813.1
2017-Nov-29 03:13N 55°13' E 013°16'413.2
2017-Nov-29 02:57N 55°13' E 013°10'613.4
2017-Nov-29 02:30N 55°13' E 012°60'713.5
2017-Nov-29 02:00N 55°15' E 012°48'612.8
2017-Nov-29 01:30N 55°18' E 012°38'612.0
2017-Nov-29 01:00N 55°24' E 012°39'612.4
2017-Nov-29 00:30N 55°30' E 012°42'510.8
2017-Nov-29 00:00N 55°36' E 012°42'5 9.5
2017-Nov-28 23:30N 55°40' E 012°41'611.2
2017-Nov-28 23:00N 55°46' E 012°42'611.1
2017-Nov-28 22:30N 55°51' E 012°41'510.6
2017-Nov-28 22:00N 55°57' E 012°39'510.3
2017-Nov-28 21:30N 56°02' E 012°39'5 9.3
2017-Nov-28 21:00N 56°05' E 012°34'510.5
2017-Nov-28 20:30N 56°09' E 012°27'612.7
2017-Nov-28 20:00N 56°12' E 012°17'713.0
2017-Nov-28 19:30N 56°16' E 012°07'5612.5
2017-Nov-28 14:59N 57°09' E 011°36'612.6
2017-Nov-28 14:30N 57°15' E 011°32'612.1
2017-Nov-28 13:59N 57°21' E 011°29'612.4
2017-Nov-28 13:30N 57°26' E 011°24'612.4
2017-Nov-28 13:00N 57°32' E 011°19'612.5
2017-Nov-28 12:30N 57°38' E 011°14'611.4
2017-Nov-28 12:00N 57°43' E 011°10'0 0.8
2017-Nov-28 11:26N 57°43' E 011°10'0 0.5
2017-Nov-28 10:59N 57°44' E 011°10'0 0.3
2017-Nov-28 10:29N 57°44' E 011°10'1 2.8
2017-Nov-28 10:00N 57°43' E 011°08'2 4.1
2017-Nov-28 09:25N 57°43' E 011°03'0 0.5
2017-Nov-28 08:34N 57°43' E 011°04'1 0.7
2017-Nov-28 07:34N 57°42' E 011°05'0 0.8
2017-Nov-28 07:28N 57°42' E 011°05'1 1.0
2017-Nov-28 06:52N 57°42' E 011°07'0 0.9
2017-Nov-28 06:25N 57°42' E 011°07'1 0.7
2017-Nov-28 05:37N 57°42' E 011°08'0 0.3
2017-Nov-28 05:30N 57°42' E 011°08'7 6.4
2017-Nov-28 04:29N 57°49' E 011°10'3 5.0
2017-Nov-28 03:50N 57°52' E 011°12'0 0.8
2017-Nov-28 03:29N 57°52' E 011°12'0 0.8
2017-Nov-28 02:59N 57°51' E 011°12'1 0.8
2017-Nov-28 02:05N 57°50' E 011°12'0 0.8
2017-Nov-28 01:50N 57°50' E 011°11'0 0.9
2017-Nov-28 01:26N 57°50' E 011°11'0 1.0
2017-Nov-28 00:59N 57°50' E 011°11'1 1.1
2017-Nov-28 00:08N 57°49' E 011°10'0 1.2
2017-Nov-27 23:59N 57°48' E 011°10'2 1.3
2017-Nov-27 22:50N 57°47' E 011°09'1 1.4
2017-Nov-27 22:26N 57°47' E 011°09'1 1.5
2017-Nov-27 21:56N 57°46' E 011°09'1 1.6
2017-Nov-27 21:26N 57°45' E 011°09'1 1.9
2017-Nov-27 20:56N 57°44' E 011°09'2 1.9
2017-Nov-27 19:50N 57°42' E 011°08'2 5.3
2017-Nov-27 19:30N 57°44' E 011°08'3 6.3
2017-Nov-27 18:57N 57°47' E 011°05'3 6.6
2017-Nov-27 18:30N 57°49' E 011°01'3 5.7
2017-Nov-27 17:58N 57°52' E 010°59'2 2.2
2017-Nov-27 17:06N 57°50' E 011°01'0 2.1
2017-Nov-27 16:57N 57°50' E 011°02'1 2.1
2017-Nov-27 16:30N 57°49' E 011°03'1 2.1
2017-Nov-27 15:57N 57°48' E 011°04'2 1.9
2017-Nov-27 15:03N 57°47' E 011°05'1 1.5
2017-Nov-27 14:36N 57°46' E 011°06'0 1.6
2017-Nov-27 14:21N 57°46' E 011°06'1 1.5
2017-Nov-27 13:45N 57°45' E 011°06'1 1.3
2017-Nov-27 12:37N 57°44' E 011°07'1 4.4
2017-Nov-27 12:30N 57°44' E 011°08'5 9.4
2017-Nov-27 12:00N 57°44' E 011°17'5 9.5
2017-Nov-27 11:30N 57°44' E 011°26'1 1.4
2017-Nov-27 10:59N 57°43' E 011°26'1 2.3
2017-Nov-27 10:26N 57°43' E 011°24'1 2.5
2017-Nov-27 09:53N 57°43' E 011°21'1 2.7
2017-Nov-27 09:29N 57°43' E 011°19'1 2.9
2017-Nov-27 09:00N 57°43' E 011°16'2 2.7
2017-Nov-27 08:15N 57°43' E 011°13'2 1.7
2017-Nov-27 06:51N 57°43' E 011°08'1 1.3
2017-Nov-27 06:21N 57°44' E 011°07'0 0.7
2017-Nov-27 05:59N 57°44' E 011°07'0 0.8
2017-Nov-27 05:30N 57°44' E 011°08'4 8.4
2017-Nov-27 05:00N 57°40' E 011°12'510.8
2017-Nov-27 04:30N 57°36' E 011°18'1 0.9
2017-Nov-27 03:17N 57°36' E 011°20'0 0.9
2017-Nov-27 02:53N 57°36' E 011°19'0 1.0
2017-Nov-27 02:29N 57°36' E 011°19'1 1.2
2017-Nov-27 01:41N 57°37' E 011°18'2 1.6
2017-Nov-27 00:26N 57°39' E 011°16'1 1.7
2017-Nov-26 23:56N 57°40' E 011°16'1 1.6
2017-Nov-26 23:29N 57°40' E 011°15'1 2.0
2017-Nov-26 22:59N 57°41' E 011°13'1 2.0
2017-Nov-26 22:29N 57°41' E 011°12'1 2.1
2017-Nov-26 21:59N 57°42' E 011°10'1 2.0
2017-Nov-26 21:29N 57°42' E 011°08'1 1.1
2017-Nov-26 20:59N 57°43' E 011°09'4 8.6
2017-Nov-26 20:28N 57°44' E 011°16'3 6.7
2017-Nov-26 20:00N 57°44' E 011°22'1 1.0
2017-Nov-26 19:29N 57°45' E 011°23'1 2.7
2017-Nov-26 18:59N 57°44' E 011°21'1 2.6
2017-Nov-26 18:29N 57°44' E 011°18'1 2.6
2017-Nov-26 17:59N 57°44' E 011°16'1 2.5
2017-Nov-26 17:29N 57°44' E 011°14'1 2.4
2017-Nov-26 16:59N 57°43' E 011°12'1 2.3
2017-Nov-26 16:29N 57°43' E 011°09'1 2.2
2017-Nov-26 15:59N 57°43' E 011°08'1 2.1
2017-Nov-26 15:29N 57°42' E 011°06'1 1.9
2017-Nov-26 14:59N 57°42' E 011°04'0 0.9
2017-Nov-26 14:30N 57°42' E 011°04'5 8.7
2017-Nov-26 13:59N 57°47' E 011°07'4 8.5
2017-Nov-26 13:30N 57°51' E 011°10'2 1.5
2017-Nov-26 12:20N 57°52' E 011°12'1 2.2
2017-Nov-26 11:56N 57°51' E 011°12'1 1.6
2017-Nov-26 11:29N 57°50' E 011°11'1 1.6
2017-Nov-26 10:47N 57°49' E 011°10'1 1.7
2017-Nov-26 10:26N 57°49' E 011°10'2 1.9
2017-Nov-26 09:35N 57°47' E 011°08'0 1.8
2017-Nov-26 09:23N 57°47' E 011°08'1 1.9
2017-Nov-26 08:59N 57°46' E 011°07'1 2.0
2017-Nov-26 08:29N 57°45' E 011°07'1 2.0
2017-Nov-26 07:59N 57°45' E 011°06'1 2.0
2017-Nov-26 07:29N 57°44' E 011°05'1 3.0
2017-Nov-26 07:00N 57°45' E 011°06'4 8.7
2017-Nov-26 06:30N 57°49' E 011°08'4 7.9
2017-Nov-26 06:00N 57°53' E 011°08'1 2.3
2017-Nov-26 05:27N 57°52' E 011°09'3 2.2
2017-Nov-26 04:18N 57°49' E 011°09'1 2.0
2017-Nov-26 04:00N 57°49' E 011°09'1 1.9
2017-Nov-26 03:27N 57°48' E 011°08'1 1.7
2017-Nov-26 02:54N 57°47' E 011°08'1 1.7
2017-Nov-26 02:30N 57°46' E 011°08'1 1.7
2017-Nov-26 02:00N 57°45' E 011°07'1 1.4
2017-Nov-26 01:12N 57°44' E 011°07'0 1.0
2017-Nov-26 00:56N 57°44' E 011°07'3 7.5
2017-Nov-26 00:30N 57°47' E 011°09'5 9.5
2017-Nov-26 00:00N 57°51' E 011°15'3 6.5
2017-Nov-25 23:31N 57°53' E 011°20'1 2.0
2017-Nov-25 22:55N 57°52' E 011°19'1 1.0
2017-Nov-25 22:22N 57°51' E 011°19'1 1.1
2017-Nov-25 21:52N 57°51' E 011°18'1 1.3
2017-Nov-25 21:28N 57°50' E 011°17'1 1.4
2017-Nov-25 20:58N 57°50' E 011°16'1 1.5
2017-Nov-25 20:25N 57°50' E 011°15'1 1.6
2017-Nov-25 19:58N 57°49' E 011°14'1 1.5
2017-Nov-25 19:19N 57°48' E 011°12'1 1.6
2017-Nov-25 18:55N 57°48' E 011°12'1 1.6
2017-Nov-25 18:22N 57°47' E 011°11'1 1.4
2017-Nov-25 17:46N 57°47' E 011°10'0 1.4
2017-Nov-25 17:28N 57°46' E 011°09'1 1.4
2017-Nov-25 16:58N 57°46' E 011°08'1 1.2
2017-Nov-25 16:25N 57°45' E 011°08'0 0.5
2017-Nov-25 16:00N 57°45' E 011°08'4 8.4
2017-Nov-25 15:30N 57°48' E 011°12'1 1.8
2017-Nov-25 15:00N 57°48' E 011°10'1 1.6
2017-Nov-25 14:24N 57°48' E 011°09'1 1.9
2017-Nov-25 13:59N 57°49' E 011°09'5 9.8
2017-Nov-25 13:30N 57°53' E 011°14'2 4.7
2017-Nov-25 13:00N 57°54' E 011°19'1 2.2
2017-Nov-25 12:28N 57°52' E 011°18'1 1.7
2017-Nov-25 11:52N 57°52' E 011°17'1 1.6
2017-Nov-25 11:28N 57°51' E 011°16'1 1.8
2017-Nov-25 10:58N 57°51' E 011°15'1 1.9
2017-Nov-25 10:28N 57°50' E 011°13'1 1.8
2017-Nov-25 09:43N 57°49' E 011°12'2 1.7
2017-Nov-25 08:43N 57°47' E 011°10'1 1.8
2017-Nov-25 08:22N 57°47' E 011°10'1 1.8
2017-Nov-25 07:55N 57°46' E 011°10'1 1.8
2017-Nov-25 07:25N 57°45' E 011°10'2 5.2
2017-Nov-25 07:01N 57°47' E 011°11'4 7.4
2017-Nov-25 06:30N 57°51' E 011°14'2 4.5
2017-Nov-25 06:00N 57°53' E 011°15'2 2.1
2017-Nov-25 05:11N 57°51' E 011°14'0 1.9
2017-Nov-25 04:59N 57°51' E 011°14'1 1.9
2017-Nov-25 04:26N 57°50' E 011°14'1 1.7
2017-Nov-25 03:59N 57°49' E 011°14'1 1.7
2017-Nov-25 03:29N 57°48' E 011°13'1 1.6
2017-Nov-25 02:53N 57°47' E 011°13'0 0.7
2017-Nov-25 02:31N 57°47' E 011°13'5 8.9
2017-Nov-25 01:58N 57°51' E 011°18'510.3
2017-Nov-25 01:30N 57°52' E 011°27'5 9.7
2017-Nov-25 01:01N 57°55' E 011°34'510.1
2017-Nov-25 00:30N 57°57' E 011°42'611.3
2017-Nov-25 00:00N 58°02' E 011°47'5 9.2
2017-Nov-24 23:28N 58°07' E 011°50'5 9.7
2017-Nov-24 22:59N 58°12' E 011°51'511.0
2017-Nov-24 22:30N 58°17' E 011°48'  
Track history (hours):
 
Tides and Currents Weather Stations Pressure Air Temp Water Temp Dewpoint Dewpoint Depression Visibility Wind Speed Wind Dir Waves Ship Positions

Hedvig Bulker

Last reported at 2017-Dec-02 14:21 UTC. Time now 2017-Dec-12 19:53 UTC.
Position N 60°24' E 019°02'.
Warning: this ship's position is 10 days out of date.

Length 175 m; draft 7.1 m.

Type: Ship. MMSI: 219594000.

Date/timePositionNaut miles runAvg speedWind from/ knotsBaromVisibWave heightAir tempDewpointWater temp
2017-Dec-02 14:21N 60°24' E 019°02'512.7
2017-Dec-02 13:57N 60°19' E 019°01'612.2
2017-Dec-02 13:30N 60°13' E 019°04'611.2
2017-Dec-02 13:00N 60°09' E 019°09'611.2
2017-Dec-02 12:30N 60°04' E 019°17'611.0
2017-Dec-02 12:00N 60°00' E 019°23'510.9
2017-Dec-02 11:30N 59°56' E 019°30'510.7
2017-Dec-02 11:00N 59°52' E 019°37'510.9
2017-Dec-02 10:30N 59°48' E 019°44'611.4
2017-Dec-02 10:00N 59°43' E 019°51'611.1
2017-Dec-02 09:29N 59°38' E 019°58'17411.2
2017-Dec-01 17:51N 57°16' E 016°44'410.6
2017-Dec-01 17:30N 57°16' E 016°38'4 8.5
2017-Dec-01 17:00N 57°16' E 016°30'1 1.3
2017-Dec-01 16:29N 57°16' E 016°29'0 0.0
2017-Dec-01 15:59N 57°16' E 016°29'0 0.0
2017-Dec-01 15:29N 57°16' E 016°29'0 0.0
2017-Dec-01 14:59N 57°16' E 016°29'0 0.0
2017-Dec-01 14:29N 57°16' E 016°29'0 0.0
2017-Dec-01 13:59N 57°16' E 016°29'0 0.0
2017-Dec-01 13:29N 57°16' E 016°29'0 0.0
2017-Dec-01 12:59N 57°16' E 016°29'0 0.0
2017-Dec-01 12:29N 57°16' E 016°29'0 0.0
2017-Dec-01 11:59N 57°16' E 016°29'0 0.0
2017-Dec-01 11:29N 57°16' E 016°29'0 0.0
2017-Dec-01 10:59N 57°16' E 016°29'0 0.0
2017-Dec-01 10:29N 57°16' E 016°29'0 0.0
2017-Dec-01 09:59N 57°16' E 016°29'0 0.0
2017-Dec-01 09:29N 57°16' E 016°29'0 0.0
2017-Dec-01 08:59N 57°16' E 016°29'0 0.0
2017-Dec-01 08:29N 57°16' E 016°29'0 0.0
2017-Dec-01 07:59N 57°16' E 016°29'0 0.0
2017-Dec-01 07:29N 57°16' E 016°29'0 0.0
2017-Dec-01 06:59N 57°16' E 016°29'0 0.0
2017-Dec-01 06:29N 57°16' E 016°29'0 0.0
2017-Dec-01 05:59N 57°16' E 016°29'0 0.0
2017-Dec-01 05:29N 57°16' E 016°29'0 0.0
2017-Dec-01 04:59N 57°16' E 016°29'0 0.0
2017-Dec-01 04:29N 57°16' E 016°29'0 0.0
2017-Dec-01 03:59N 57°16' E 016°29'0 0.0
2017-Dec-01 03:29N 57°16' E 016°29'0 0.0
2017-Dec-01 02:59N 57°16' E 016°29'0 0.0
2017-Dec-01 02:29N 57°16' E 016°29'0 0.0
2017-Dec-01 01:59N 57°16' E 016°29'0 0.0
2017-Dec-01 01:29N 57°16' E 016°29'0 0.0
2017-Dec-01 00:59N 57°16' E 016°29'0 0.0
2017-Dec-01 00:29N 57°16' E 016°29'0 0.0
2017-Nov-30 23:59N 57°16' E 016°29'0 0.0
2017-Nov-30 23:29N 57°16' E 016°29'0 0.0
2017-Nov-30 22:59N 57°16' E 016°29'0 0.0
2017-Nov-30 22:29N 57°16' E 016°29'0 0.0
2017-Nov-30 21:59N 57°16' E 016°29'0 0.0
2017-Nov-30 21:29N 57°16' E 016°29'0 0.0
2017-Nov-30 20:59N 57°16' E 016°29'0 0.0
2017-Nov-30 20:29N 57°16' E 016°29'0 0.0
2017-Nov-30 19:59N 57°16' E 016°29'0 0.0
2017-Nov-30 19:29N 57°16' E 016°29'0 0.0
2017-Nov-30 18:59N 57°16' E 016°29'0 0.0
2017-Nov-30 18:29N 57°16' E 016°29'0 0.0
2017-Nov-30 17:59N 57°16' E 016°29'0 0.0
2017-Nov-30 17:29N 57°16' E 016°29'0 0.0
2017-Nov-30 16:59N 57°16' E 016°29'0 0.0
2017-Nov-30 16:29N 57°16' E 016°29'0 0.0
2017-Nov-30 15:59N 57°16' E 016°29'0 0.0
2017-Nov-30 15:29N 57°16' E 016°29'0 0.0
2017-Nov-30 14:59N 57°16' E 016°29'0 0.0
2017-Nov-30 14:29N 57°16' E 016°29'0 0.0
2017-Nov-30 13:59N 57°16' E 016°29'0 0.0
2017-Nov-30 13:29N 57°16' E 016°29'0 0.0
2017-Nov-30 12:59N 57°16' E 016°29'0 0.0
2017-Nov-30 12:26N 57°16' E 016°29'0 0.0
2017-Nov-30 11:59N 57°16' E 016°29'0 0.0
2017-Nov-30 11:29N 57°16' E 016°29'0 0.0
2017-Nov-30 10:59N 57°16' E 016°29'0 0.1
2017-Nov-30 10:31N 57°16' E 016°29'1 2.6
2017-Nov-30 10:01N 57°16' E 016°31'3 5.8
2017-Nov-30 09:31N 57°16' E 016°36'0 0.8
2017-Nov-30 09:00N 57°15' E 016°37'0 0.1
2017-Nov-30 08:27N 57°15' E 016°37'0 0.2
2017-Nov-30 08:00N 57°15' E 016°37'0 0.2
2017-Nov-30 07:30N 57°15' E 016°37'0 0.1
2017-Nov-30 07:00N 57°15' E 016°37'0 0.1
2017-Nov-30 06:30N 57°15' E 016°37'0 0.1
2017-Nov-30 06:00N 57°15' E 016°37'0 0.0
2017-Nov-30 05:30N 57°15' E 016°37'0 0.0
2017-Nov-30 05:00N 57°15' E 016°37'0 0.1
2017-Nov-30 04:30N 57°15' E 016°37'0 0.0
2017-Nov-30 04:00N 57°15' E 016°37'0 0.0
2017-Nov-30 03:30N 57°15' E 016°37'0 0.0
2017-Nov-30 03:00N 57°15' E 016°37'0 0.1
2017-Nov-30 02:30N 57°15' E 016°37'0 0.0
2017-Nov-30 02:00N 57°15' E 016°37'0 0.1
2017-Nov-30 01:30N 57°15' E 016°37'0 0.1
2017-Nov-30 01:00N 57°15' E 016°37'0 0.4
2017-Nov-30 00:30N 57°15' E 016°37'2 3.7
2017-Nov-30 00:00N 57°16' E 016°40'69 7.0
2017-Nov-29 14:10N 56°07' E 016°51'213.2
2017-Nov-29 14:00N 56°05' E 016°49'613.0
2017-Nov-29 13:30N 56°01' E 016°40'613.0
2017-Nov-29 13:00N 55°58' E 016°30'612.8
2017-Nov-29 12:30N 55°54' E 016°21'612.9
2017-Nov-29 12:00N 55°51' E 016°11'612.8
2017-Nov-29 11:30N 55°47' E 016°01'612.6
2017-Nov-29 11:00N 55°44' E 015°52'612.6
2017-Nov-29 10:30N 55°41' E 015°42'612.5
2017-Nov-29 10:00N 55°38' E 015°32'612.6
2017-Nov-29 09:30N 55°36' E 015°22'612.6
2017-Nov-29 09:00N 55°34' E 015°11'712.8
2017-Nov-29 08:25N 55°31' E 014°59'513.0
2017-Nov-29 08:00N 55°30' E 014°50'612.6
2017-Nov-29 07:30N 55°26' E 014°41'713.1
2017-Nov-29 07:00N 55°20' E 014°34'612.9
2017-Nov-29 06:30N 55°15' E 014°27'612.2
2017-Nov-29 06:00N 55°11' E 014°19'812.8
2017-Nov-29 05:22N 55°10' E 014°05'2813.1
2017-Nov-29 03:13N 55°13' E 013°16'413.2
2017-Nov-29 02:57N 55°13' E 013°10'613.4
2017-Nov-29 02:30N 55°13' E 012°60'713.5
2017-Nov-29 02:00N 55°15' E 012°48'612.8
2017-Nov-29 01:30N 55°18' E 012°38'612.0
2017-Nov-29 01:00N 55°24' E 012°39'612.4
2017-Nov-29 00:30N 55°30' E 012°42'510.8
2017-Nov-29 00:00N 55°36' E 012°42'5 9.5
2017-Nov-28 23:30N 55°40' E 012°41'611.2
2017-Nov-28 23:00N 55°46' E 012°42'611.1
2017-Nov-28 22:30N 55°51' E 012°41'510.6
2017-Nov-28 22:00N 55°57' E 012°39'510.3
2017-Nov-28 21:30N 56°02' E 012°39'5 9.3
2017-Nov-28 21:00N 56°05' E 012°34'510.5
2017-Nov-28 20:30N 56°09' E 012°27'612.7
2017-Nov-28 20:00N 56°12' E 012°17'713.0
2017-Nov-28 19:30N 56°16' E 012°07'5612.5
2017-Nov-28 14:59N 57°09' E 011°36'612.6
2017-Nov-28 14:30N 57°15' E 011°32'612.1
2017-Nov-28 13:59N 57°21' E 011°29'612.4
2017-Nov-28 13:30N 57°26' E 011°24'612.4
2017-Nov-28 13:00N 57°32' E 011°19'612.5
2017-Nov-28 12:30N 57°38' E 011°14'611.4
2017-Nov-28 12:00N 57°43' E 011°10'0 0.8
2017-Nov-28 11:26N 57°43' E 011°10'0 0.5
2017-Nov-28 10:59N 57°44' E 011°10'0 0.3
2017-Nov-28 10:29N 57°44' E 011°10'1 2.8
2017-Nov-28 10:00N 57°43' E 011°08'2 4.1
2017-Nov-28 09:25N 57°43' E 011°03'0 0.5
2017-Nov-28 08:34N 57°43' E 011°04'1 0.7
2017-Nov-28 07:34N 57°42' E 011°05'0 0.8
2017-Nov-28 07:28N 57°42' E 011°05'1 1.0
2017-Nov-28 06:52N 57°42' E 011°07'0 0.9
2017-Nov-28 06:25N 57°42' E 011°07'1 0.7
2017-Nov-28 05:37N 57°42' E 011°08'0 0.3
2017-Nov-28 05:30N 57°42' E 011°08'7 6.4
2017-Nov-28 04:29N 57°49' E 011°10'3 5.0
2017-Nov-28 03:50N 57°52' E 011°12'0 0.8
2017-Nov-28 03:29N 57°52' E 011°12'0 0.8
2017-Nov-28 02:59N 57°51' E 011°12'1 0.8
2017-Nov-28 02:05N 57°50' E 011°12'0 0.8
2017-Nov-28 01:50N 57°50' E 011°11'0 0.9
2017-Nov-28 01:26N 57°50' E 011°11'0 1.0
2017-Nov-28 00:59N 57°50' E 011°11'1 1.1
2017-Nov-28 00:08N 57°49' E 011°10'0 1.2
2017-Nov-27 23:59N 57°48' E 011°10'2 1.3
2017-Nov-27 22:50N 57°47' E 011°09'1 1.4
2017-Nov-27 22:26N 57°47' E 011°09'1 1.5
2017-Nov-27 21:56N 57°46' E 011°09'1 1.6
2017-Nov-27 21:26N 57°45' E 011°09'1 1.9
2017-Nov-27 20:56N 57°44' E 011°09'2 1.9
2017-Nov-27 19:50N 57°42' E 011°08'2 5.3
2017-Nov-27 19:30N 57°44' E 011°08'3 6.3
2017-Nov-27 18:57N 57°47' E 011°05'3 6.6
2017-Nov-27 18:30N 57°49' E 011°01'3 5.7
2017-Nov-27 17:58N 57°52' E 010°59'2 2.2
2017-Nov-27 17:06N 57°50' E 011°01'0 2.1
2017-Nov-27 16:57N 57°50' E 011°02'1 2.1
2017-Nov-27 16:30N 57°49' E 011°03'1 2.1
2017-Nov-27 15:57N 57°48' E 011°04'2 1.9
2017-Nov-27 15:03N 57°47' E 011°05'1 1.5
2017-Nov-27 14:36N 57°46' E 011°06'0 1.6
2017-Nov-27 14:21N 57°46' E 011°06'1 1.5
2017-Nov-27 13:45N 57°45' E 011°06'1 1.3
2017-Nov-27 12:37N 57°44' E 011°07'1 4.4
2017-Nov-27 12:30N 57°44' E 011°08'5 9.4
2017-Nov-27 12:00N 57°44' E 011°17'5 9.5
2017-Nov-27 11:30N 57°44' E 011°26'1 1.4
2017-Nov-27 10:59N 57°43' E 011°26'1 2.3
2017-Nov-27 10:26N 57°43' E 011°24'1 2.5
2017-Nov-27 09:53N 57°43' E 011°21'1 2.7
2017-Nov-27 09:29N 57°43' E 011°19'1 2.9
2017-Nov-27 09:00N 57°43' E 011°16'2 2.7
2017-Nov-27 08:15N 57°43' E 011°13'2 1.7
2017-Nov-27 06:51N 57°43' E 011°08'1 1.3
2017-Nov-27 06:21N 57°44' E 011°07'0 0.7
2017-Nov-27 05:59N 57°44' E 011°07'0 0.8
2017-Nov-27 05:30N 57°44' E 011°08'4 8.4
2017-Nov-27 05:00N 57°40' E 011°12'510.8
2017-Nov-27 04:30N 57°36' E 011°18'1 0.9
2017-Nov-27 03:17N 57°36' E 011°20'0 0.9
2017-Nov-27 02:53N 57°36' E 011°19'0 1.0
2017-Nov-27 02:29N 57°36' E 011°19'1 1.2
2017-Nov-27 01:41N 57°37' E 011°18'2 1.6
2017-Nov-27 00:26N 57°39' E 011°16'1 1.7
2017-Nov-26 23:56N 57°40' E 011°16'1 1.6
2017-Nov-26 23:29N 57°40' E 011°15'1 2.0
2017-Nov-26 22:59N 57°41' E 011°13'1 2.0
2017-Nov-26 22:29N 57°41' E 011°12'1 2.1
2017-Nov-26 21:59N 57°42' E 011°10'1 2.0
2017-Nov-26 21:29N 57°42' E 011°08'1 1.1
2017-Nov-26 20:59N 57°43' E 011°09'4 8.6
2017-Nov-26 20:28N 57°44' E 011°16'3 6.7
2017-Nov-26 20:00N 57°44' E 011°22'1 1.0
2017-Nov-26 19:29N 57°45' E 011°23'1 2.7
2017-Nov-26 18:59N 57°44' E 011°21'1 2.6
2017-Nov-26 18:29N 57°44' E 011°18'1 2.6
2017-Nov-26 17:59N 57°44' E 011°16'1 2.5
2017-Nov-26 17:29N 57°44' E 011°14'1 2.4
2017-Nov-26 16:59N 57°43' E 011°12'1 2.3
2017-Nov-26 16:29N 57°43' E 011°09'1 2.2
2017-Nov-26 15:59N 57°43' E 011°08'1 2.1
2017-Nov-26 15:29N 57°42' E 011°06'1 1.9
2017-Nov-26 14:59N 57°42' E 011°04'0 0.9
2017-Nov-26 14:30N 57°42' E 011°04'5 8.7
2017-Nov-26 13:59N 57°47' E 011°07'4 8.5
2017-Nov-26 13:30N 57°51' E 011°10'2 1.5
2017-Nov-26 12:20N 57°52' E 011°12'1 2.2
2017-Nov-26 11:56N 57°51' E 011°12'1 1.6
2017-Nov-26 11:29N 57°50' E 011°11'1 1.6
2017-Nov-26 10:47N 57°49' E 011°10'1 1.7
2017-Nov-26 10:26N 57°49' E 011°10'2 1.9
2017-Nov-26 09:35N 57°47' E 011°08'0 1.8
2017-Nov-26 09:23N 57°47' E 011°08'1 1.9
2017-Nov-26 08:59N 57°46' E 011°07'1 2.0
2017-Nov-26 08:29N 57°45' E 011°07'1 2.0
2017-Nov-26 07:59N 57°45' E 011°06'1 2.0
2017-Nov-26 07:29N 57°44' E 011°05'1 3.0
2017-Nov-26 07:00N 57°45' E 011°06'4 8.7
2017-Nov-26 06:30N 57°49' E 011°08'4 7.9
2017-Nov-26 06:00N 57°53' E 011°08'1 2.3
2017-Nov-26 05:27N 57°52' E 011°09'3 2.2
2017-Nov-26 04:18N 57°49' E 011°09'1 2.0
2017-Nov-26 04:00N 57°49' E 011°09'1 1.9
2017-Nov-26 03:27N 57°48' E 011°08'1 1.7
2017-Nov-26 02:54N 57°47' E 011°08'1 1.7
2017-Nov-26 02:30N 57°46' E 011°08'1 1.7
2017-Nov-26 02:00N 57°45' E 011°07'1 1.4
2017-Nov-26 01:12N 57°44' E 011°07'0 1.0
2017-Nov-26 00:56N 57°44' E 011°07'3 7.5
2017-Nov-26 00:30N 57°47' E 011°09'5 9.5
2017-Nov-26 00:00N 57°51' E 011°15'3 6.5
2017-Nov-25 23:31N 57°53' E 011°20'1 2.0
2017-Nov-25 22:55N 57°52' E 011°19'1 1.0
2017-Nov-25 22:22N 57°51' E 011°19'1 1.1
2017-Nov-25 21:52N 57°51' E 011°18'1 1.3
2017-Nov-25 21:28N 57°50' E 011°17'1 1.4
2017-Nov-25 20:58N 57°50' E 011°16'1 1.5
2017-Nov-25 20:25N 57°50' E 011°15'1 1.6
2017-Nov-25 19:58N 57°49' E 011°14'1 1.5
2017-Nov-25 19:19N 57°48' E 011°12'1 1.6
2017-Nov-25 18:55N 57°48' E 011°12'1 1.6
2017-Nov-25 18:22N 57°47' E 011°11'1 1.4
2017-Nov-25 17:46N 57°47' E 011°10'0 1.4
2017-Nov-25 17:28N 57°46' E 011°09'1 1.4
2017-Nov-25 16:58N 57°46' E 011°08'1 1.2
2017-Nov-25 16:25N 57°45' E 011°08'0 0.5
2017-Nov-25 16:00N 57°45' E 011°08'4 8.4
2017-Nov-25 15:30N 57°48' E 011°12'1 1.8
2017-Nov-25 15:00N 57°48' E 011°10'1 1.6
2017-Nov-25 14:24N 57°48' E 011°09'1 1.9
2017-Nov-25 13:59N 57°49' E 011°09'5 9.8
2017-Nov-25 13:30N 57°53' E 011°14'2 4.7
2017-Nov-25 13:00N 57°54' E 011°19'1 2.2
2017-Nov-25 12:28N 57°52' E 011°18'1 1.7
2017-Nov-25 11:52N 57°52' E 011°17'1 1.6
2017-Nov-25 11:28N 57°51' E 011°16'1 1.8
2017-Nov-25 10:58N 57°51' E 011°15'1 1.9
2017-Nov-25 10:28N 57°50' E 011°13'1 1.8
2017-Nov-25 09:43N 57°49' E 011°12'2 1.7
2017-Nov-25 08:43N 57°47' E 011°10'1 1.8
2017-Nov-25 08:22N 57°47' E 011°10'1 1.8
2017-Nov-25 07:55N 57°46' E 011°10'1 1.8
2017-Nov-25 07:25N 57°45' E 011°10'2 5.2
2017-Nov-25 07:01N 57°47' E 011°11'4 7.4
2017-Nov-25 06:30N 57°51' E 011°14'2 4.5
2017-Nov-25 06:00N 57°53' E 011°15'2 2.1
2017-Nov-25 05:11N 57°51' E 011°14'0 1.9
2017-Nov-25 04:59N 57°51' E 011°14'1 1.9
2017-Nov-25 04:26N 57°50' E 011°14'1 1.7
2017-Nov-25 03:59N 57°49' E 011°14'1 1.7
2017-Nov-25 03:29N 57°48' E 011°13'1 1.6
2017-Nov-25 02:53N 57°47' E 011°13'0 0.7
2017-Nov-25 02:31N 57°47' E 011°13'5 8.9
2017-Nov-25 01:58N 57°51' E 011°18'510.3
2017-Nov-25 01:30N 57°52' E 011°27'5 9.7
2017-Nov-25 01:01N 57°55' E 011°34'510.1
2017-Nov-25 00:30N 57°57' E 011°42'611.3
2017-Nov-25 00:00N 58°02' E 011°47'5 9.2
2017-Nov-24 23:28N 58°07' E 011°50'5 9.7
2017-Nov-24 22:59N 58°12' E 011°51'511.0
2017-Nov-24 22:30N 58°17' E 011°48'  

Dump ship's entire track history